createdAt,value
2023-04-16T00:00:09.902Z,3.22
2023-04-16T00:02:41.341Z,3.58
2023-04-16T00:05:10.277Z,3.33
2023-04-16T00:07:38.409Z,3.53
2023-04-16T00:10:07.732Z,3.63
2023-04-16T00:15:04.965Z,3.75
2023-04-16T00:17:34.465Z,3.63
2023-04-16T00:20:02.547Z,3.78
2023-04-16T00:22:30.656Z,4.20
2023-04-16T00:24:58.751Z,4.13
2023-04-16T00:27:26.863Z,4.07
2023-04-16T00:29:54.925Z,3.80
2023-04-16T00:32:23.030Z,4.57
2023-04-16T00:34:54.213Z,4.50
2023-04-16T00:37:22.473Z,4.82
2023-04-16T00:39:51.248Z,3.97
2023-04-16T00:42:19.465Z,4.43
2023-04-16T00:44:47.608Z,4.70
2023-04-16T00:47:16.051Z,5.22
2023-04-16T00:49:44.414Z,4.43
2023-04-16T00:52:13.983Z,4.90
2023-04-16T00:54:42.269Z,5.72
2023-04-16T00:57:11.121Z,5.90
2023-04-16T00:59:39.186Z,6.53
2023-04-16T01:02:08.360Z,6.00
2023-04-16T01:04:36.799Z,6.45
2023-04-16T01:07:04.945Z,5.82
2023-04-16T01:09:34.580Z,7.35
2023-04-16T01:12:04.427Z,6.95
2023-04-16T01:14:36.274Z,8.25
2023-04-16T01:17:04.456Z,7.93
2023-04-16T01:19:32.808Z,7.82
2023-04-16T01:22:02.542Z,7.38
2023-04-16T01:24:30.834Z,7.72
2023-04-16T01:26:59.439Z,7.00
2023-04-16T01:29:27.822Z,7.35
2023-04-16T01:31:58.472Z,7.78
2023-04-16T01:34:28.899Z,7.22
2023-04-16T01:36:56.981Z,7.70
2023-04-16T01:39:26.424Z,7.95
2023-04-16T01:44:23.281Z,7.38
2023-04-16T01:46:51.395Z,6.82
2023-04-16T01:49:19.591Z,7.43
2023-04-16T01:51:47.850Z,7.25
2023-04-16T01:54:16.074Z,7.43
2023-04-16T01:56:46.207Z,7.22
2023-04-16T01:59:14.350Z,7.32
2023-04-16T02:01:43.580Z,6.60
2023-04-16T02:04:12.890Z,6.17
2023-04-16T02:06:41.199Z,6.90
2023-04-16T02:09:09.765Z,7.88
2023-04-16T02:11:39.238Z,6.97
2023-04-16T02:14:09.884Z,7.07
2023-04-16T02:16:37.996Z,7.63
2023-04-16T02:19:27.670Z,7.10
2023-04-16T02:21:56.114Z,7.50
2023-04-16T02:24:24.159Z,7.63
2023-04-16T02:26:52.367Z,8.45
2023-04-16T02:29:22.661Z,7.03
2023-04-16T02:31:57.772Z,8.27
2023-04-16T02:34:26.054Z,7.75
2023-04-16T02:36:55.196Z,8.35
2023-04-16T02:39:23.413Z,8.27
2023-04-16T02:41:52.497Z,8.18
2023-04-16T02:44:22.726Z,8.65
2023-04-16T02:46:50.973Z,8.20
2023-04-16T02:49:19.131Z,8.07
2023-04-16T02:51:47.183Z,8.90
2023-04-16T02:54:15.648Z,9.50
2023-04-16T02:56:44.417Z,8.17
2023-04-16T02:59:12.525Z,8.70
2023-04-16T03:01:42.138Z,9.25
2023-04-16T03:04:10.632Z,9.68
2023-04-16T03:06:41.236Z,8.70
2023-04-16T03:09:09.470Z,10.23
2023-04-16T03:11:37.995Z,9.33
2023-04-16T03:14:06.570Z,9.63
2023-04-16T03:16:34.649Z,10.93
2023-04-16T03:19:04.163Z,10.05
2023-04-16T03:21:32.557Z,9.95
2023-04-16T03:24:00.691Z,10.77
2023-04-16T03:26:28.875Z,10.63
2023-04-16T03:28:57.072Z,10.65
2023-04-16T03:31:25.686Z,12.40
2023-04-16T03:33:55.219Z,10.82
2023-04-16T03:36:25.476Z,10.48
2023-04-16T03:38:53.770Z,11.23
2023-04-16T03:41:22.037Z,10.45
2023-04-16T03:43:50.143Z,11.35
2023-04-16T03:46:18.179Z,11.88
2023-04-16T03:48:47.079Z,11.95
2023-04-16T03:51:15.460Z,10.47
2023-04-16T03:53:45.111Z,11.07
2023-04-16T03:56:14.955Z,11.13
2023-04-16T03:58:44.314Z,11.45
2023-04-16T04:03:40.696Z,10.85
2023-04-16T04:06:09.574Z,10.90
2023-04-16T04:08:38.175Z,11.40
2023-04-16T04:11:08.881Z,12.32
2023-04-16T04:13:37.766Z,10.73
2023-04-16T04:16:06.869Z,11.93
2023-04-16T04:18:35.033Z,11.85
2023-04-16T04:21:07.252Z,11.00
2023-04-16T04:23:35.815Z,11.15
2023-04-16T04:26:07.459Z,11.27
2023-04-16T04:28:37.278Z,11.43
2023-04-16T04:31:06.345Z,11.38
2023-04-16T04:33:34.841Z,10.70
2023-04-16T04:36:03.362Z,9.70
2023-04-16T04:38:33.249Z,11.75
2023-04-16T04:41:01.704Z,9.80
2023-04-16T04:43:34.346Z,11.70
2023-04-16T04:46:04.244Z,11.23
2023-04-16T04:48:33.407Z,10.95
2023-04-16T04:51:02.987Z,11.45
2023-04-16T04:53:32.942Z,10.30
2023-04-16T04:56:09.157Z,11.77
2023-04-16T05:01:09.784Z,10.98
2023-04-16T05:03:38.356Z,11.25
2023-04-16T05:06:06.915Z,12.43
2023-04-16T05:08:37.977Z,11.50
2023-04-16T05:11:06.458Z,12.35
2023-04-16T05:13:34.724Z,10.53
2023-04-16T05:16:02.860Z,12.18
2023-04-16T05:18:36.289Z,12.32
2023-04-16T05:21:04.587Z,12.25
2023-04-16T05:23:32.719Z,12.18
2023-04-16T05:26:00.777Z,12.15
2023-04-16T05:28:28.864Z,13.32
2023-04-16T05:30:56.978Z,11.63
2023-04-16T05:33:25.257Z,12.15
2023-04-16T05:35:54.863Z,12.07
2023-04-16T05:38:23.001Z,11.43
2023-04-16T05:40:50.998Z,16.55
2023-04-16T05:43:19.016Z,15.63
2023-04-16T05:45:47.059Z,12.85
2023-04-16T05:48:15.232Z,11.15
2023-04-16T05:50:44.497Z,11.35
2023-04-16T05:53:14.554Z,11.02
2023-04-16T05:55:42.858Z,11.20
2023-04-16T05:58:10.978Z,10.45
2023-04-16T06:00:39.092Z,10.05
2023-04-16T06:03:07.458Z,10.57
2023-04-16T06:05:35.920Z,10.93
2023-04-16T06:08:03.935Z,10.35
2023-04-16T06:10:33.673Z,10.68
2023-04-16T06:13:01.838Z,10.55
2023-04-16T06:15:30.341Z,10.20
2023-04-16T06:18:00.698Z,9.10
2023-04-16T06:20:29.228Z,10.57
2023-04-16T06:22:57.614Z,8.85
2023-04-16T06:25:25.798Z,9.13
2023-04-16T06:27:55.551Z,9.80
2023-04-16T06:30:23.636Z,9.70
2023-04-16T06:32:51.861Z,8.93
2023-04-16T06:35:20.798Z,8.75
2023-04-16T06:37:48.824Z,8.13
2023-04-16T06:40:17.061Z,8.52
2023-04-16T06:42:45.723Z,9.02
2023-04-16T06:45:15.535Z,8.18
2023-04-16T06:47:43.654Z,8.48
2023-04-16T06:50:12.338Z,7.53
2023-04-16T06:52:40.549Z,7.40
2023-04-16T06:55:10.198Z,8.10
2023-04-16T06:57:40.876Z,8.45
2023-04-16T07:00:10.268Z,8.80
2023-04-16T07:05:09.164Z,7.55
2023-04-16T07:07:37.228Z,8.95
2023-04-16T07:10:05.915Z,8.60
2023-04-16T07:12:34.139Z,8.90
2023-04-16T07:15:02.639Z,9.40
2023-04-16T07:17:30.775Z,9.32
2023-04-16T07:20:00.665Z,9.93
2023-04-16T07:22:28.759Z,9.32
2023-04-16T07:24:57.214Z,9.52
2023-04-16T07:27:25.432Z,10.40
2023-04-16T07:29:54.920Z,9.82
2023-04-16T07:32:23.919Z,10.05
2023-04-16T07:34:52.190Z,9.60
2023-04-16T07:37:22.031Z,9.55
2023-04-16T07:39:51.997Z,9.48
2023-04-16T07:42:20.124Z,9.50
2023-04-16T07:44:48.281Z,10.30
2023-04-16T07:47:16.401Z,10.02
2023-04-16T07:49:44.529Z,11.35
2023-04-16T07:52:13.052Z,9.48
2023-04-16T07:54:42.620Z,9.85
2023-04-16T07:57:11.687Z,10.38
2023-04-16T07:59:39.948Z,9.98
2023-04-16T08:02:09.051Z,9.30
2023-04-16T08:04:37.584Z,9.25
2023-04-16T08:07:05.831Z,9.90
2023-04-16T08:09:35.058Z,10.27
2023-04-16T08:12:05.200Z,9.43
2023-04-16T08:14:33.620Z,8.90
2023-04-16T08:17:01.820Z,9.07
2023-04-16T08:19:30.097Z,8.65
2023-04-16T08:21:58.355Z,8.60
2023-04-16T08:24:27.220Z,8.93
2023-04-16T08:26:58.404Z,8.30
2023-04-16T08:29:32.105Z,7.55
2023-04-16T08:32:00.668Z,8.48
2023-04-16T08:34:28.804Z,8.52
2023-04-16T08:36:56.949Z,8.15
2023-04-16T08:39:25.064Z,7.68
2023-04-16T08:41:58.203Z,7.70
2023-04-16T08:44:28.816Z,7.03
2023-04-16T08:46:59.291Z,7.38
2023-04-16T08:49:28.299Z,7.05
2023-04-16T08:51:57.772Z,6.78
2023-04-16T08:54:36.077Z,6.72
2023-04-16T08:57:07.898Z,7.28
2023-04-16T08:59:36.647Z,7.32
2023-04-16T09:02:07.700Z,16.17
2023-04-16T09:04:39.173Z,8.63
2023-04-16T09:07:09.563Z,17.50
2023-04-16T09:09:39.856Z,6.43
2023-04-16T09:12:09.908Z,16.05
2023-04-16T09:14:41.881Z,7.72
2023-04-16T09:17:14.229Z,7.72
2023-04-16T09:19:42.356Z,8.07
2023-04-16T09:22:10.542Z,6.90
2023-04-16T09:24:39.318Z,6.75
2023-04-16T09:27:08.856Z,7.43
2023-04-16T09:29:37.736Z,7.43
2023-04-16T09:32:07.589Z,6.78
2023-04-16T09:34:55.766Z,5.88
2023-04-16T09:37:23.939Z,7.43
2023-04-16T09:39:56.910Z,7.55
2023-04-16T09:42:27.458Z,8.40
2023-04-16T09:44:59.379Z,8.90
2023-04-16T09:47:41.190Z,9.18
2023-04-16T09:50:17.804Z,11.10
2023-04-16T09:52:49.746Z,10.35
2023-04-16T09:55:19.243Z,10.48
2023-04-16T09:57:49.341Z,8.27
2023-04-16T10:00:20.223Z,10.82
2023-04-16T10:02:50.653Z,8.13
2023-04-16T10:05:21.402Z,9.90
2023-04-16T10:07:50.179Z,9.95
2023-04-16T10:10:18.619Z,11.93
2023-04-16T10:12:46.773Z,17.07
2023-04-16T10:15:15.067Z,13.73
2023-04-16T10:17:45.101Z,17.50
2023-04-16T10:20:14.228Z,17.33
2023-04-16T10:22:45.290Z,14.60
2023-04-16T10:25:14.033Z,10.20
2023-04-16T10:27:42.619Z,10.82
2023-04-16T10:30:13.227Z,12.32
2023-04-16T10:32:42.968Z,11.68
2023-04-16T10:35:15.920Z,12.13
2023-04-16T10:37:45.711Z,17.67
2023-04-16T10:40:24.864Z,13.18
2023-04-16T10:42:59.734Z,14.38
2023-04-16T10:45:31.794Z,12.63
2023-04-16T10:48:00.355Z,13.27
2023-04-16T10:50:36.624Z,13.35
2023-04-16T10:53:30.082Z,14.68
2023-04-16T10:56:13.905Z,13.68
2023-04-16T10:58:42.774Z,12.85
2023-04-16T11:01:17.142Z,14.13
2023-04-16T11:03:48.548Z,12.75
2023-04-16T11:06:18.615Z,14.23
2023-04-16T11:08:54.659Z,12.95
2023-04-16T11:11:24.246Z,13.25
2023-04-16T11:13:57.268Z,13.38
2023-04-16T11:16:27.474Z,13.27
2023-04-16T11:18:57.241Z,16.73
2023-04-16T11:21:27.176Z,16.02
2023-04-16T11:23:59.643Z,15.15
2023-04-16T11:26:31.522Z,14.23
2023-04-16T11:29:00.319Z,15.07
2023-04-16T11:31:28.709Z,13.98
2023-04-16T11:33:58.022Z,14.47
2023-04-16T11:39:04.743Z,14.02
2023-04-16T11:41:32.877Z,15.23
2023-04-16T11:44:01.484Z,13.88
2023-04-16T11:46:39.775Z,13.60
2023-04-16T11:49:08.115Z,13.40
2023-04-16T11:51:41.319Z,12.70
2023-04-16T11:54:12.301Z,13.77
2023-04-16T11:56:54.367Z,13.68
2023-04-16T11:59:24.023Z,13.85
2023-04-16T12:01:53.377Z,13.57
2023-04-16T12:09:39.526Z,11.23
2023-04-16T12:12:26.886Z,11.90
2023-04-16T12:14:57.051Z,12.43
2023-04-16T12:17:25.376Z,13.77
2023-04-16T12:19:56.866Z,14.13
2023-04-16T12:22:30.078Z,12.90
2023-04-16T12:25:04.437Z,13.80
2023-04-16T12:27:52.796Z,12.63
